ISABELLA DAM (ISB)

Elevation: 2635' · KERN R basin · Operator: US Army Corps of Engineers

Provisional data, subject to change.
Query executed Friday at 21:02:52   clock

Select a sensor type for a plot of data.
Note: Reservoir Flows are daily averages.

Earlier

Date RES ELE    STORAGE    RES CHG    TOC STO    ABV TOC    OUTFLOW    INFLOW    FNF    PPT INC    TEMP MN    TEMP MX    WINDLEN    EVP PAN   
 FEET   AF   AF   AF   AF   CFS   CFS   CFS   INCHES   DEG F   DEG F   MILES   INCHES  
07/30/2014 2535.00 59109 -202 361250 -302141 175 105 105 0.00 25 38 156 0.40
07/31/2014 2534.90 58937 -172 361250 -302313 172 125 125 0.00 23 38 125 0.37
08/01/2014 2534.90 58851 -86 360310 -301459 203 165 165 0.00 23 40 118 0.38
08/02/2014 2534.90 58678 -173 359380 -300702 223 153 153 0.00 22 37 110 0.30
08/03/2014 2534.80 58592 -86 358440 -299848 263 209 209 0.03 19 29 154 0.16
08/04/2014 2534.80 58564 -28 357510 -298946 264 265 265 0.03 19 33 116 0.32
08/05/2014 2534.90 58879 315 356570 -297691 255 454 454 0.01 19 34 144 0.35
08/06/2014 2534.90 58937 58 355630 -296693 329 319 319 0.00 20 32 166 0.33
08/07/2014 2534.80 58621 -316 354700 -296079 414 202 202 0.00 19 34 142 0.34
08/08/2014 2534.70 58335 -286 353760 -295425 394 303 303 0.01 21 37 133 0.36
08/09/2014 2534.60 57994 -341 352820 -294826 360 257 257 0.01 21 38 122 0.36
08/10/2014 2534.50 57625 -369 351890 -294265 360 209 209 0.00 20 37 121 0.36
08/11/2014 2534.40 57315 -310 350950 -293635 333 239 239 0.00 21 36 144 0.31
08/12/2014 2534.30 57118 -197 350020 -292902 277 264 264 0.01 21 37 168 0.38
08/13/2014 2534.40 57315 197 349080 -291765 255 413 301 e 0.00 21 35 147 0.36
08/14/2014 2534.40 57230 -85 348140 -290910 297 247 247 0.00 20 36 108 0.34
08/15/2014 2534.20 56949 -281 347210 -290261 358 189 301 e 0.00 19 38 112 0.36
08/16/2014 2534.10 56642 -307 346270 -289628 339 238 238 0.00 18 36 131 0.37
08/17/2014 2534.00 56335 -307 345330 -288995 329 219 219 0.00 18 38 123 0.36
08/18/2014 2533.90 56030 -305 344400 -288370 298 209 209 0.00 22 36 138 0.36
08/19/2014 2533.80 55753 -277 343460 -287707 256 193 193 0.00 20 33 145 0.34
08/20/2014 2533.80 55560 -193 342530 -286970 227 191 191 0.00 17 34 124 0.32
08/21/2014 2533.70 55423 -137 341590 -286167 194 189 189 0.00 18 34 116 0.32
08/22/2014 2533.60 55258 -165 340650 -285392 187 142 142 0.00 21 34 132 0.33
08/23/2014 2533.60 55148 -110 339720 -284572 175 163 163 0.00 19 33 166 0.35
08/24/2014 2533.50 55011 -137 338780 -283769 175 139 139 0.00 17 34 129 0.33
08/25/2014 2533.50 54848 -163 337850 -283002 171 123 123 0.00 18 33 135 0.34
08/26/2014 2533.40 54684 -164 336910 -282226 166 120 120 0.00 17 33 142 0.33
08/27/2014 2533.40 54548 -136 335970 -281422 -- -- -- -- -- -- -- --
08/28/2014 -- -- -- 335040 -- -- -- -- -- -- -- -- --
08/29/2014 -- -- -- -- -- -- -- -- -- -- -- -- --

Later | Latest

Warning! This data is preliminary and subject to revision.

Download Data Now Download Data Now | Show ISB Map | Plot ISB Data | 1 Month ISB Data | Real-Time ISB Data | ISB Info